createdAt,value
2018-05-26T00:01:51.190Z,7.63
2018-05-26T00:04:18.771Z,7.43
2018-05-26T00:06:46.350Z,7.40
2018-05-26T00:09:14.054Z,6.60
2018-05-26T00:11:41.639Z,6.40
2018-05-26T00:14:09.240Z,6.63
2018-05-26T00:16:36.822Z,7.00
2018-05-26T00:19:04.403Z,6.20
2018-05-26T00:21:32.030Z,6.67
2018-05-26T00:23:59.700Z,7.40
2018-05-26T00:26:27.284Z,7.33
2018-05-26T00:28:54.870Z,8.10
2018-05-26T00:31:22.450Z,7.43
2018-05-26T00:33:50.038Z,6.90
2018-05-26T00:36:17.631Z,7.70
2018-05-26T00:38:45.269Z,8.17
2018-05-26T00:41:12.854Z,7.97
2018-05-26T00:43:40.480Z,8.63
2018-05-26T00:46:08.070Z,8.03
2018-05-26T00:48:35.662Z,7.40
2018-05-26T00:51:03.255Z,8.03
2018-05-26T00:53:30.837Z,8.30
2018-05-26T00:55:58.417Z,8.83
2018-05-26T00:58:26.130Z,7.77
2018-05-26T01:00:53.705Z,8.30
2018-05-26T01:03:21.287Z,6.90
2018-05-26T01:05:48.870Z,8.60
2018-05-26T01:08:16.455Z,7.90
2018-05-26T01:10:44.046Z,7.70
2018-05-26T01:13:11.627Z,8.80
2018-05-26T01:15:39.319Z,7.80
2018-05-26T01:18:06.901Z,9.30
2018-05-26T01:20:34.477Z,8.73
2018-05-26T01:23:02.062Z,8.17
2018-05-26T01:25:29.646Z,7.93
2018-05-26T01:27:57.222Z,7.23
2018-05-26T01:30:24.815Z,7.80
2018-05-26T01:32:52.397Z,8.27
2018-05-26T01:35:19.981Z,8.83
2018-05-26T01:37:47.560Z,9.13
2018-05-26T01:40:15.145Z,9.27
2018-05-26T01:42:42.732Z,8.80
2018-05-26T01:45:10.330Z,9.07
2018-05-26T01:47:37.986Z,7.83
2018-05-26T01:50:05.650Z,8.73
2018-05-26T01:52:33.231Z,7.60
2018-05-26T01:55:00.818Z,8.27
2018-05-26T01:57:28.456Z,8.40
2018-05-26T01:59:56.043Z,8.13
2018-05-26T02:02:23.628Z,9.10
2018-05-26T02:04:51.211Z,9.20
2018-05-26T02:07:18.798Z,7.87
2018-05-26T02:09:46.920Z,7.80
2018-05-26T02:12:14.618Z,8.40
2018-05-26T02:14:42.200Z,8.07
2018-05-26T02:17:09.774Z,9.13
2018-05-26T02:19:37.353Z,8.70
2018-05-26T02:22:04.930Z,8.97
2018-05-26T02:24:32.504Z,9.63
2018-05-26T02:27:00.094Z,9.20
2018-05-26T02:29:27.714Z,8.63
2018-05-26T02:31:55.301Z,9.10
2018-05-26T02:34:22.899Z,9.00
2018-05-26T02:36:50.486Z,9.90
2018-05-26T02:39:18.117Z,9.23
2018-05-26T02:41:45.706Z,9.00
2018-05-26T02:44:13.316Z,9.93
2018-05-26T02:46:40.894Z,9.33
2018-05-26T02:49:08.478Z,10.23
2018-05-26T02:51:36.053Z,9.73
2018-05-26T02:54:03.668Z,9.53
2018-05-26T02:56:31.375Z,9.77
2018-05-26T02:58:58.962Z,9.57
2018-05-26T03:01:26.550Z,8.77
2018-05-26T03:03:53.578Z,9.90
2018-05-26T03:06:26.742Z,9.40
2018-05-26T03:09:00.063Z,9.10
2018-05-26T03:11:33.237Z,9.43
2018-05-26T03:14:06.413Z,10.00
2018-05-26T03:16:53.681Z,9.53
2018-05-26T03:19:21.352Z,9.27
2018-05-26T03:21:48.942Z,9.10
2018-05-26T03:24:16.573Z,9.53
2018-05-26T03:26:44.167Z,9.03
2018-05-26T03:29:11.803Z,8.87
2018-05-26T03:31:39.381Z,8.30
2018-05-26T03:34:06.968Z,10.37
2018-05-26T03:36:34.549Z,9.20
2018-05-26T03:39:02.134Z,9.93
2018-05-26T03:41:29.730Z,9.20
2018-05-26T03:43:57.313Z,9.40
2018-05-26T03:46:24.884Z,9.13
2018-05-26T03:48:52.470Z,9.20
2018-05-26T03:51:20.054Z,10.10
2018-05-26T03:53:47.640Z,9.80
2018-05-26T03:56:26.760Z,10.07
2018-05-26T03:59:06.082Z,9.30
2018-05-26T04:01:33.701Z,9.87
2018-05-26T04:04:01.280Z,8.03
2018-05-26T04:06:28.870Z,9.30
2018-05-26T04:08:56.494Z,9.13
2018-05-26T04:11:24.132Z,9.87
2018-05-26T04:13:51.749Z,10.20
2018-05-26T04:16:19.335Z,9.60
2018-05-26T04:18:46.954Z,8.57
2018-05-26T04:21:14.538Z,8.77
2018-05-26T04:23:42.167Z,9.60
2018-05-26T04:26:09.754Z,8.43
2018-05-26T04:28:37.336Z,8.13
2018-05-26T04:31:04.922Z,8.23
2018-05-26T04:33:32.507Z,9.00
2018-05-26T04:36:00.086Z,8.17
2018-05-26T04:38:27.678Z,9.27
2018-05-26T04:40:55.256Z,9.73
2018-05-26T04:43:22.837Z,9.30
2018-05-26T04:45:50.458Z,7.70
2018-05-26T04:48:18.106Z,7.13
2018-05-26T04:50:45.726Z,8.40
2018-05-26T04:53:13.307Z,7.53
2018-05-26T04:55:40.925Z,8.30
2018-05-26T04:58:08.506Z,9.80
2018-05-26T05:00:36.085Z,9.40
2018-05-26T05:03:03.673Z,9.10
2018-05-26T05:05:31.293Z,9.43
2018-05-26T05:07:58.933Z,9.07
2018-05-26T05:10:26.521Z,9.07
2018-05-26T05:12:54.151Z,8.77
2018-05-26T05:15:21.774Z,9.00
2018-05-26T05:17:49.354Z,9.00
2018-05-26T05:20:16.935Z,9.60
2018-05-26T05:22:44.516Z,7.70
2018-05-26T05:25:12.097Z,8.97
2018-05-26T05:27:39.686Z,8.37
2018-05-26T05:30:07.305Z,8.80
2018-05-26T05:32:34.956Z,8.50
2018-05-26T05:35:02.549Z,8.23
2018-05-26T05:37:30.182Z,8.70
2018-05-26T05:39:57.810Z,8.50
2018-05-26T05:42:25.622Z,8.17
2018-05-26T05:44:53.267Z,8.80
2018-05-26T05:47:20.890Z,8.70
2018-05-26T05:49:48.477Z,8.57
2018-05-26T05:52:16.254Z,8.60
2018-05-26T05:54:43.841Z,15.43
2018-05-26T05:57:11.418Z,8.47
2018-05-26T05:59:38.996Z,8.43
2018-05-26T06:02:06.581Z,8.23
2018-05-26T06:04:34.182Z,7.90
2018-05-26T06:07:01.767Z,7.60
2018-05-26T06:09:29.362Z,7.97
2018-05-26T06:11:56.947Z,7.30
2018-05-26T06:14:24.565Z,7.67
2018-05-26T06:16:52.157Z,7.33
2018-05-26T06:19:19.744Z,8.23
2018-05-26T06:21:47.321Z,7.43
2018-05-26T06:24:14.900Z,7.70
2018-05-26T06:26:42.485Z,7.70
2018-05-26T06:29:10.069Z,7.30
2018-05-26T06:31:37.688Z,7.27
2018-05-26T06:34:05.353Z,7.23
2018-05-26T06:36:32.980Z,7.80
2018-05-26T06:39:00.610Z,7.90
2018-05-26T06:41:28.254Z,7.70
2018-05-26T06:43:55.840Z,7.10
2018-05-26T06:46:23.413Z,6.93
2018-05-26T06:48:51.070Z,6.90
2018-05-26T06:51:19.517Z,6.27
2018-05-26T06:53:47.126Z,6.97
2018-05-26T06:56:14.707Z,6.90
2018-05-26T06:58:42.286Z,6.47
2018-05-26T07:01:09.861Z,5.90
2018-05-26T07:03:37.682Z,5.93
2018-05-26T07:06:05.316Z,10.10
2018-05-26T07:08:32.916Z,6.90
2018-05-26T07:11:00.533Z,6.20
2018-05-26T07:13:28.105Z,4.90
2018-05-26T07:15:55.778Z,6.67
2018-05-26T07:18:23.398Z,6.13
2018-05-26T07:20:50.983Z,6.50
2018-05-26T07:23:18.603Z,5.63
2018-05-26T07:25:46.323Z,6.40
2018-05-26T07:28:13.906Z,5.80
2018-05-26T07:30:41.490Z,6.60
2018-05-26T07:33:09.073Z,5.90
2018-05-26T07:35:36.659Z,5.30
2018-05-26T07:38:04.251Z,6.10
2018-05-26T07:40:31.834Z,5.63
2018-05-26T07:42:59.410Z,5.80
2018-05-26T07:45:26.999Z,6.57
2018-05-26T07:47:54.587Z,6.17
2018-05-26T07:50:22.166Z,5.70
2018-05-26T07:52:49.745Z,5.50
2018-05-26T07:55:17.360Z,5.93
2018-05-26T07:57:44.938Z,6.70
2018-05-26T08:00:12.608Z,5.73
2018-05-26T08:02:40.173Z,5.30
2018-05-26T08:05:07.789Z,5.00
2018-05-26T08:07:35.369Z,5.20
2018-05-26T08:10:02.987Z,5.27
2018-05-26T08:12:30.583Z,4.80
2018-05-26T08:14:58.202Z,4.80
2018-05-26T08:17:25.799Z,4.70
2018-05-26T08:19:53.384Z,5.20
2018-05-26T08:22:20.963Z,4.57
2018-05-26T08:24:48.538Z,4.30
2018-05-26T08:27:16.142Z,4.97
2018-05-26T08:29:43.732Z,4.90
2018-05-26T08:32:11.349Z,4.10
2018-05-26T08:34:39.010Z,3.90
2018-05-26T08:37:06.630Z,4.40
2018-05-26T08:39:34.242Z,4.57
2018-05-26T08:42:01.905Z,3.93
2018-05-26T08:44:29.490Z,4.90
2018-05-26T08:46:57.119Z,4.83
2018-05-26T08:49:24.720Z,3.40
2018-05-26T08:51:52.341Z,4.00
2018-05-26T08:54:19.922Z,4.30
2018-05-26T08:56:47.501Z,4.63
2018-05-26T08:59:15.129Z,4.23
2018-05-26T09:01:42.789Z,4.03
2018-05-26T09:04:10.374Z,4.20
2018-05-26T09:06:38.022Z,3.60
2018-05-26T09:09:05.633Z,3.97
2018-05-26T09:11:33.211Z,4.27
2018-05-26T09:14:00.797Z,3.60
2018-05-26T09:16:28.379Z,3.80
2018-05-26T09:18:55.959Z,3.50
2018-05-26T09:21:23.537Z,4.20
2018-05-26T09:23:51.134Z,3.30
2018-05-26T09:26:18.718Z,3.63
2018-05-26T09:28:46.302Z,4.40
2018-05-26T09:31:13.924Z,3.67
2018-05-26T09:33:41.497Z,3.60
2018-05-26T09:36:09.069Z,3.67
2018-05-26T09:38:36.646Z,3.13
2018-05-26T09:41:04.223Z,3.47
2018-05-26T09:43:31.797Z,3.57
2018-05-26T09:45:59.378Z,3.63
2018-05-26T09:48:26.963Z,3.67
2018-05-26T09:50:54.538Z,3.43
2018-05-26T09:53:22.116Z,3.70
2018-05-26T09:55:49.691Z,4.07
2018-05-26T09:58:17.306Z,3.43
2018-05-26T10:00:44.890Z,3.63
2018-05-26T10:03:12.471Z,2.90
2018-05-26T10:05:40.049Z,3.30
2018-05-26T10:08:07.629Z,3.20
2018-05-26T10:10:35.210Z,3.90
2018-05-26T10:13:02.827Z,3.43
2018-05-26T10:15:30.435Z,3.20
2018-05-26T10:17:58.100Z,4.00
2018-05-26T10:20:25.681Z,3.40
2018-05-26T10:22:53.317Z,3.63
2018-05-26T10:25:20.897Z,3.07
2018-05-26T10:27:48.533Z,3.40
2018-05-26T10:30:16.117Z,3.13
2018-05-26T10:32:43.800Z,3.17
2018-05-26T10:35:11.427Z,3.37
2018-05-26T10:37:39.086Z,3.70
2018-05-26T10:40:06.706Z,2.93
2018-05-26T10:42:34.289Z,3.20
2018-05-26T10:45:01.881Z,3.07
2018-05-26T10:47:29.471Z,3.30
2018-05-26T10:49:57.095Z,3.33
2018-05-26T10:52:24.665Z,3.00
2018-05-26T10:54:52.237Z,3.50
2018-05-26T10:57:19.885Z,3.60
2018-05-26T10:59:47.500Z,3.50
2018-05-26T11:02:15.083Z,3.50
2018-05-26T11:04:42.703Z,3.30
2018-05-26T11:07:10.281Z,3.67
2018-05-26T11:09:37.866Z,3.20
2018-05-26T11:12:05.554Z,3.40
2018-05-26T11:14:33.239Z,3.33
2018-05-26T11:17:01.763Z,3.90
2018-05-26T11:19:29.359Z,3.60
2018-05-26T11:21:56.987Z,3.50
2018-05-26T11:24:24.607Z,3.80
2018-05-26T11:26:52.177Z,3.70
2018-05-26T11:29:19.759Z,3.63
2018-05-26T11:31:47.338Z,3.47
2018-05-26T11:34:14.914Z,4.17
2018-05-26T11:36:42.498Z,3.30
2018-05-26T11:39:10.122Z,3.60
2018-05-26T11:41:37.701Z,3.63
2018-05-26T11:44:05.278Z,3.50
2018-05-26T11:46:32.853Z,3.83
2018-05-26T11:49:00.431Z,3.30
2018-05-26T11:51:28.011Z,3.60
2018-05-26T11:53:55.710Z,3.50
2018-05-26T11:56:23.289Z,3.53
2018-05-26T11:58:50.871Z,3.30
2018-05-26T12:01:18.456Z,3.30
2018-05-26T12:03:46.035Z,3.50
2018-05-26T12:06:13.627Z,3.27
2018-05-26T12:08:41.208Z,3.30
2018-05-26T12:11:08.876Z,3.33
2018-05-26T12:13:36.440Z,2.90
2018-05-26T12:16:05.830Z,3.57
2018-05-26T12:18:33.449Z,3.30
2018-05-26T12:21:01.033Z,3.63
2018-05-26T12:23:28.621Z,3.13
2018-05-26T12:25:56.288Z,3.50
2018-05-26T12:28:23.876Z,3.50
2018-05-26T12:30:51.493Z,3.70
2018-05-26T12:33:19.119Z,5.30
2018-05-26T12:35:46.698Z,3.60
2018-05-26T12:38:14.320Z,5.37
2018-05-26T12:40:42.516Z,3.70
2018-05-26T12:43:10.137Z,4.50
2018-05-26T12:45:37.774Z,5.23
2018-05-26T12:48:05.393Z,4.40
2018-05-26T12:50:32.974Z,3.80
2018-05-26T12:53:00.556Z,3.07
2018-05-26T12:55:28.142Z,4.17
2018-05-26T12:57:55.954Z,3.77
2018-05-26T13:00:23.536Z,3.87
2018-05-26T13:02:51.116Z,3.60
2018-05-26T13:05:18.697Z,3.30
2018-05-26T13:07:46.331Z,3.47
2018-05-26T13:10:13.912Z,3.60
2018-05-26T13:12:41.492Z,3.40
2018-05-26T13:15:09.069Z,3.90
2018-05-26T13:17:36.646Z,4.10
2018-05-26T13:20:04.283Z,3.37
2018-05-26T13:22:31.858Z,3.10
2018-05-26T13:24:59.441Z,4.30
2018-05-26T13:27:27.022Z,3.57
2018-05-26T13:29:54.609Z,3.33
2018-05-26T13:32:22.214Z,3.20
2018-05-26T13:34:50.073Z,3.60
2018-05-26T13:37:17.713Z,3.30
2018-05-26T13:39:45.298Z,3.67
2018-05-26T13:42:12.881Z,3.03
2018-05-26T13:44:40.471Z,3.60
2018-05-26T13:47:08.052Z,3.43
2018-05-26T13:49:36.496Z,3.40
2018-05-26T13:52:04.091Z,3.70
2018-05-26T13:54:31.825Z,3.40
2018-05-26T13:56:59.354Z,3.97
2018-05-26T13:59:26.995Z,3.70
2018-05-26T14:01:54.580Z,3.53
2018-05-26T14:04:22.203Z,3.40
2018-05-26T14:06:49.802Z,3.60
2018-05-26T14:09:17.388Z,3.43
2018-05-26T14:11:44.984Z,3.90
2018-05-26T14:14:12.567Z,3.13
2018-05-26T14:16:40.188Z,3.13
2018-05-26T14:19:08.508Z,3.43
2018-05-26T14:21:36.125Z,3.40
2018-05-26T14:24:03.709Z,3.10
2018-05-26T14:26:31.329Z,3.70
2018-05-26T14:28:58.914Z,3.83
2018-05-26T14:31:26.617Z,3.00
2018-05-26T14:33:54.195Z,3.50
2018-05-26T14:36:21.790Z,2.93
2018-05-26T14:38:50.017Z,3.23
2018-05-26T14:41:17.782Z,3.37
2018-05-26T14:43:45.357Z,3.07
2018-05-26T14:46:12.944Z,3.60
2018-05-26T14:48:40.580Z,2.80
2018-05-26T14:51:08.257Z,2.90
2018-05-26T14:53:35.996Z,2.90
2018-05-26T14:56:08.163Z,3.17
2018-05-26T14:58:35.790Z,3.13
2018-05-26T15:01:03.442Z,3.40
2018-05-26T15:03:31.065Z,3.60
2018-05-26T15:05:58.767Z,3.07
2018-05-26T15:08:26.433Z,3.03
2018-05-26T15:10:54.057Z,3.83
2018-05-26T15:13:21.697Z,4.13
2018-05-26T15:15:50.999Z,3.50
2018-05-26T15:18:18.629Z,3.37
2018-05-26T15:20:46.244Z,3.10
2018-05-26T15:23:13.822Z,3.60
2018-05-26T15:25:41.437Z,3.20
2018-05-26T15:28:09.047Z,3.73
2018-05-26T15:30:36.668Z,3.20
2018-05-26T15:33:04.290Z,3.30
2018-05-26T15:35:31.869Z,3.40
2018-05-26T15:37:59.488Z,3.53
2018-05-26T15:40:27.669Z,3.50
2018-05-26T15:42:55.282Z,3.27
2018-05-26T15:45:22.870Z,3.37
2018-05-26T15:47:50.484Z,3.70
2018-05-26T15:50:18.085Z,3.40
2018-05-26T15:52:45.807Z,3.40
2018-05-26T15:55:13.397Z,3.40
2018-05-26T15:57:40.975Z,3.63
2018-05-26T16:00:08.593Z,3.90
2018-05-26T16:02:36.174Z,3.50
2018-05-26T16:05:03.793Z,3.20
2018-05-26T16:07:31.369Z,5.17
2018-05-26T16:09:58.945Z,4.03
2018-05-26T16:12:26.630Z,4.57
2018-05-26T16:14:54.209Z,3.60
2018-05-26T16:17:21.786Z,3.67
2018-05-26T16:19:49.394Z,3.20
2018-05-26T16:22:16.979Z,3.83
2018-05-26T16:24:44.560Z,3.93
2018-05-26T16:27:12.133Z,3.80
2018-05-26T16:29:39.709Z,3.83
2018-05-26T16:32:07.290Z,3.53
2018-05-26T16:34:34.871Z,3.80
2018-05-26T16:37:02.520Z,4.00
2018-05-26T16:39:30.103Z,3.70
2018-05-26T16:41:57.737Z,4.87
2018-05-26T16:44:25.940Z,3.60
2018-05-26T16:46:53.570Z,7.53
2018-05-26T16:49:21.146Z,4.20
2018-05-26T16:51:48.793Z,4.77
2018-05-26T16:54:16.374Z,3.43
2018-05-26T16:56:43.945Z,3.80
2018-05-26T16:59:11.522Z,3.53
2018-05-26T17:01:39.153Z,4.80
2018-05-26T17:04:06.855Z,6.43
2018-05-26T17:06:34.429Z,5.07
2018-05-26T17:09:02.015Z,5.20
2018-05-26T17:11:29.601Z,6.17
2018-05-26T17:13:57.285Z,4.23
2018-05-26T17:16:24.906Z,4.03
2018-05-26T17:18:52.475Z,5.20
2018-05-26T17:21:20.101Z,3.43
2018-05-26T17:23:47.677Z,4.37
2018-05-26T17:26:15.253Z,3.70
2018-05-26T17:28:43.178Z,3.53
2018-05-26T17:31:10.895Z,3.80
2018-05-26T17:33:39.069Z,4.27
2018-05-26T17:36:06.802Z,3.80
2018-05-26T17:38:34.382Z,3.50
2018-05-26T17:41:01.989Z,4.23
2018-05-26T17:43:29.607Z,3.17
2018-05-26T17:45:57.489Z,3.73
2018-05-26T17:48:25.117Z,3.73
2018-05-26T17:50:52.721Z,4.13
2018-05-26T17:53:20.339Z,3.90
2018-05-26T17:55:48.399Z,3.10
2018-05-26T17:58:16.185Z,52.77
2018-05-26T18:00:46.644Z,4.10
2018-05-26T18:03:14.421Z,3.50
2018-05-26T18:05:42.138Z,3.73
2018-05-26T18:08:13.079Z,3.60
2018-05-26T18:10:40.673Z,4.33
2018-05-26T18:13:08.338Z,3.73
2018-05-26T18:15:35.957Z,3.43
2018-05-26T18:18:06.302Z,3.50
2018-05-26T18:20:33.978Z,3.60
2018-05-26T18:23:01.522Z,3.20
2018-05-26T18:25:29.747Z,3.47
2018-05-26T18:27:58.932Z,3.37
2018-05-26T18:30:31.676Z,3.10
2018-05-26T18:32:59.306Z,3.43
2018-05-26T18:35:26.938Z,3.50
2018-05-26T18:37:54.601Z,2.90
2018-05-26T18:40:22.263Z,3.60
2018-05-26T18:42:50.451Z,3.20
2018-05-26T18:45:18.067Z,3.57
2018-05-26T18:47:45.647Z,3.43
2018-05-26T18:50:13.326Z,3.70
2018-05-26T18:52:40.906Z,3.90
2018-05-26T18:55:08.549Z,3.77
2018-05-26T18:57:36.133Z,3.80
2018-05-26T19:00:03.824Z,3.70
2018-05-26T19:02:31.442Z,3.93
2018-05-26T19:04:59.061Z,4.40
2018-05-26T19:07:26.689Z,4.30
2018-05-26T19:09:54.270Z,3.67
2018-05-26T19:12:21.986Z,3.43
2018-05-26T19:14:49.566Z,4.20
2018-05-26T19:17:17.178Z,3.87
2018-05-26T19:19:44.869Z,4.20
2018-05-26T19:22:12.485Z,4.10
2018-05-26T19:24:40.061Z,3.90
2018-05-26T19:27:07.637Z,4.73
2018-05-26T19:29:35.253Z,4.67
2018-05-26T19:32:02.871Z,4.50
2018-05-26T19:34:30.457Z,4.03
2018-05-26T19:36:58.065Z,4.80
2018-05-26T19:39:25.664Z,4.13
2018-05-26T19:41:53.250Z,4.63
2018-05-26T19:44:20.886Z,5.23
2018-05-26T19:46:48.474Z,4.43
2018-05-26T19:49:16.828Z,5.30
2018-05-26T19:51:44.414Z,5.37
2018-05-26T19:54:11.994Z,5.03
2018-05-26T19:56:40.477Z,5.07
2018-05-26T19:59:08.052Z,5.30
2018-05-26T20:01:35.631Z,5.40
2018-05-26T20:04:03.208Z,5.63
2018-05-26T20:06:30.878Z,6.00
2018-05-26T20:08:58.490Z,12.40
2018-05-26T20:11:26.238Z,11.43
2018-05-26T20:13:53.818Z,7.43
2018-05-26T20:16:21.485Z,7.27
2018-05-26T20:18:49.143Z,6.17
2018-05-26T20:21:16.740Z,6.30
2018-05-26T20:23:44.317Z,5.80
2018-05-26T20:26:12.146Z,7.27
2018-05-26T20:28:39.763Z,6.80
2018-05-26T20:31:07.381Z,7.27
2018-05-26T20:33:35.074Z,8.50
2018-05-26T20:36:02.665Z,8.13
2018-05-26T20:38:30.289Z,10.70
2018-05-26T20:40:57.882Z,11.33
2018-05-26T20:43:25.468Z,9.80
2018-05-26T20:45:53.074Z,8.43
2018-05-26T20:48:20.737Z,8.50
2018-05-26T20:50:48.406Z,9.70
2018-05-26T20:53:16.052Z,10.33
2018-05-26T20:55:43.728Z,10.73
2018-05-26T20:58:11.350Z,10.63
2018-05-26T21:00:38.962Z,10.10
2018-05-26T21:03:06.549Z,10.60
2018-05-26T21:05:34.178Z,10.33
2018-05-26T21:08:01.770Z,11.70
2018-05-26T21:10:29.363Z,11.97
2018-05-26T21:12:56.974Z,11.80
2018-05-26T21:15:24.671Z,10.83
2018-05-26T21:17:52.385Z,8.57
2018-05-26T21:20:20.820Z,9.30
2018-05-26T21:22:48.450Z,10.30
2018-05-26T21:25:16.069Z,9.97
2018-05-26T21:27:43.695Z,9.60
2018-05-26T21:30:11.301Z,9.40
2018-05-26T21:32:38.981Z,9.60
2018-05-26T21:35:06.621Z,10.10
2018-05-26T21:37:34.202Z,9.17
2018-05-26T21:40:01.789Z,9.63
2018-05-26T21:42:29.378Z,8.83
2018-05-26T21:44:57.145Z,7.90
2018-05-26T21:47:24.729Z,8.10
2018-05-26T21:49:52.341Z,9.17
2018-05-26T21:52:19.965Z,8.27
2018-05-26T21:54:48.473Z,8.73
2018-05-26T21:57:16.110Z,13.90
2018-05-26T21:59:43.805Z,11.70
2018-05-26T22:02:11.474Z,20.30
2018-05-26T22:04:39.071Z,18.87
2018-05-26T22:07:06.754Z,17.23
2018-05-26T22:09:34.389Z,15.17
2018-05-26T22:12:02.019Z,12.30
2018-05-26T22:14:29.727Z,13.33
2018-05-26T22:16:57.322Z,12.20
2018-05-26T22:19:24.958Z,10.23
2018-05-26T22:21:52.594Z,10.53
2018-05-26T22:24:20.234Z,10.07
2018-05-26T22:26:47.845Z,9.60
2018-05-26T22:29:15.500Z,10.20
2018-05-26T22:31:43.064Z,9.63
2018-05-26T22:34:10.680Z,9.10
2018-05-26T22:36:38.380Z,10.13
2018-05-26T22:39:06.007Z,10.87
2018-05-26T22:41:33.637Z,9.77
2018-05-26T22:44:01.368Z,9.80
2018-05-26T22:46:28.998Z,10.13
2018-05-26T22:48:57.527Z,9.80
2018-05-26T22:51:25.110Z,10.73
2018-05-26T22:53:52.686Z,9.10
2018-05-26T22:56:20.271Z,9.93
2018-05-26T22:58:47.857Z,9.80
2018-05-26T23:01:15.442Z,9.60
2018-05-26T23:03:43.054Z,10.00
2018-05-26T23:06:10.678Z,9.67
2018-05-26T23:08:38.403Z,10.50
2018-05-26T23:11:06.035Z,9.47
2018-05-26T23:13:33.619Z,10.80
2018-05-26T23:16:01.207Z,10.40
2018-05-26T23:18:28.822Z,10.80
2018-05-26T23:20:56.486Z,10.20
2018-05-26T23:23:24.080Z,10.00
2018-05-26T23:25:51.756Z,10.00
2018-05-26T23:28:19.394Z,10.43
2018-05-26T23:30:47.030Z,9.87
2018-05-26T23:33:14.698Z,10.67
2018-05-26T23:35:42.361Z,9.97
2018-05-26T23:38:09.943Z,8.70
2018-05-26T23:40:37.559Z,8.60
2018-05-26T23:43:05.244Z,10.10
2018-05-26T23:45:32.866Z,9.57
2018-05-26T23:48:00.475Z,9.70
2018-05-26T23:50:28.067Z,10.00
2018-05-26T23:52:55.649Z,8.70
2018-05-26T23:55:23.233Z,9.97
2018-05-26T23:57:50.915Z,9.73
